sensor_id;sensor_type;location;lat;lon;timestamp;temperature;humidity
78467;SHT31;67759;51.972;5.650;2024-03-25T00:00:39;11.8;51.8
78467;SHT31;67759;51.972;5.650;2024-03-25T00:03:10;11.8;51.8
78467;SHT31;67759;51.972;5.650;2024-03-25T00:05:38;11.7;51.8
78467;SHT31;67759;51.972;5.650;2024-03-25T00:08:07;11.7;52.0
78467;SHT31;67759;51.972;5.650;2024-03-25T00:10:38;11.7;52.0
78467;SHT31;67759;51.972;5.650;2024-03-25T00:13:06;11.7;51.9
78467;SHT31;67759;51.972;5.650;2024-03-25T00:15:37;11.7;52.0
78467;SHT31;67759;51.972;5.650;2024-03-25T00:18:06;11.6;52.0
78467;SHT31;67759;51.972;5.650;2024-03-25T00:20:35;11.6;52.0
78467;SHT31;67759;51.972;5.650;2024-03-25T00:23:04;11.6;52.0
78467;SHT31;67759;51.972;5.650;2024-03-25T00:25:35;11.6;52.1
78467;SHT31;67759;51.972;5.650;2024-03-25T00:28:04;11.6;52.0
78467;SHT31;67759;51.972;5.650;2024-03-25T00:30:33;11.6;51.9
78467;SHT31;67759;51.972;5.650;2024-03-25T00:33:02;11.5;52.0
78467;SHT31;67759;51.972;5.650;2024-03-25T00:35:30;11.5;52.1
78467;SHT31;67759;51.972;5.650;2024-03-25T00:37:59;11.5;52.2
78467;SHT31;67759;51.972;5.650;2024-03-25T00:40:27;11.4;52.3
78467;SHT31;67759;51.972;5.650;2024-03-25T00:42:56;11.4;52.5
78467;SHT31;67759;51.972;5.650;2024-03-25T00:45:24;11.4;52.9
78467;SHT31;67759;51.972;5.650;2024-03-25T00:47:57;11.4;53.0
78467;SHT31;67759;51.972;5.650;2024-03-25T00:50:26;11.4;53.1
78467;SHT31;67759;51.972;5.650;2024-03-25T00:52:54;11.4;53.1
78467;SHT31;67759;51.972;5.650;2024-03-25T00:55:23;11.4;53.2
78467;SHT31;67759;51.972;5.650;2024-03-25T00:57:52;11.3;53.4
78467;SHT31;67759;51.972;5.650;2024-03-25T01:00:21;11.3;53.2
78467;SHT31;67759;51.972;5.650;2024-03-25T01:02:49;11.3;53.2
78467;SHT31;67759;51.972;5.650;2024-03-25T01:05:18;11.3;53.1
78467;SHT31;67759;51.972;5.650;2024-03-25T01:07:46;11.4;53.1
78467;SHT31;67759;51.972;5.650;2024-03-25T01:10:15;11.4;53.1
78467;SHT31;67759;51.972;5.650;2024-03-25T01:12:44;11.4;53.0
78467;SHT31;67759;51.972;5.650;2024-03-25T01:15:15;11.4;53.0
78467;SHT31;67759;51.972;5.650;2024-03-25T01:17:45;11.5;53.0
78467;SHT31;67759;51.972;5.650;2024-03-25T01:20:13;11.5;53.0
78467;SHT31;67759;51.972;5.650;2024-03-25T01:22:42;11.6;52.7
78467;SHT31;67759;51.972;5.650;2024-03-25T01:25:10;11.7;52.5
78467;SHT31;67759;51.972;5.650;2024-03-25T01:27:39;11.7;52.2
78467;SHT31;67759;51.972;5.650;2024-03-25T01:30:11;11.8;51.9
78467;SHT31;67759;51.972;5.650;2024-03-25T01:32:41;11.8;51.7
78467;SHT31;67759;51.972;5.650;2024-03-25T01:35:11;11.9;51.4
78467;SHT31;67759;51.972;5.650;2024-03-25T01:37:39;11.9;51.1
78467;SHT31;67759;51.972;5.650;2024-03-25T01:40:08;12.0;50.8
78467;SHT31;67759;51.972;5.650;2024-03-25T01:42:38;12.0;50.7
78467;SHT31;67759;51.972;5.650;2024-03-25T01:45:08;11.9;50.7
78467;SHT31;67759;51.972;5.650;2024-03-25T01:47:40;11.8;50.6
78467;SHT31;67759;51.972;5.650;2024-03-25T01:50:09;11.7;51.0
78467;SHT31;67759;51.972;5.650;2024-03-25T01:52:38;11.7;51.0
78467;SHT31;67759;51.972;5.650;2024-03-25T01:55:14;11.6;51.3
78467;SHT31;67759;51.972;5.650;2024-03-25T01:57:45;11.5;51.5
78467;SHT31;67759;51.972;5.650;2024-03-25T02:00:15;11.4;51.7
78467;SHT31;67759;51.972;5.650;2024-03-25T02:02:44;11.3;52.1
78467;SHT31;67759;51.972;5.650;2024-03-25T02:05:16;11.2;52.3
78467;SHT31;67759;51.972;5.650;2024-03-25T02:07:45;11.2;52.6
78467;SHT31;67759;51.972;5.650;2024-03-25T02:10:14;11.1;52.8
78467;SHT31;67759;51.972;5.650;2024-03-25T02:12:45;11.1;52.9
78467;SHT31;67759;51.972;5.650;2024-03-25T02:15:14;11.0;53.0
78467;SHT31;67759;51.972;5.650;2024-03-25T02:17:43;11.0;52.9
78467;SHT31;67759;51.972;5.650;2024-03-25T02:20:12;11.0;52.3
78467;SHT31;67759;51.972;5.650;2024-03-25T02:22:42;11.0;52.8
78467;SHT31;67759;51.972;5.650;2024-03-25T02:25:14;11.0;52.8
78467;SHT31;67759;51.972;5.650;2024-03-25T02:27:44;11.0;52.8
78467;SHT31;67759;51.972;5.650;2024-03-25T02:30:14;11.0;52.9
78467;SHT31;67759;51.972;5.650;2024-03-25T02:32:45;11.0;52.9
78467;SHT31;67759;51.972;5.650;2024-03-25T02:35:16;11.0;52.9
78467;SHT31;67759;51.972;5.650;2024-03-25T02:37:46;11.0;53.2
78467;SHT31;67759;51.972;5.650;2024-03-25T02:40:15;11.0;53.1
78467;SHT31;67759;51.972;5.650;2024-03-25T02:42:45;11.0;53.0
78467;SHT31;67759;51.972;5.650;2024-03-25T02:45:15;10.9;53.2
78467;SHT31;67759;51.972;5.650;2024-03-25T02:47:43;11.0;52.8
78467;SHT31;67759;51.972;5.650;2024-03-25T02:50:12;11.0;52.8
78467;SHT31;67759;51.972;5.650;2024-03-25T02:52:41;11.0;52.9
78467;SHT31;67759;51.972;5.650;2024-03-25T02:55:09;11.0;52.7
78467;SHT31;67759;51.972;5.650;2024-03-25T02:57:38;11.0;52.8
78467;SHT31;67759;51.972;5.650;2024-03-25T03:00:08;11.0;52.8
78467;SHT31;67759;51.972;5.650;2024-03-25T03:02:37;11.0;53.0
78467;SHT31;67759;51.972;5.650;2024-03-25T03:05:06;11.0;53.0
78467;SHT31;67759;51.972;5.650;2024-03-25T03:07:35;10.9;53.0
78467;SHT31;67759;51.972;5.650;2024-03-25T03:10:04;10.9;52.9
78467;SHT31;67759;51.972;5.650;2024-03-25T03:12:32;10.9;53.0
78467;SHT31;67759;51.972;5.650;2024-03-25T03:15:01;10.9;52.9
78467;SHT31;67759;51.972;5.650;2024-03-25T03:17:31;10.9;52.8
78467;SHT31;67759;51.972;5.650;2024-03-25T03:20:00;10.9;52.5
78467;SHT31;67759;51.972;5.650;2024-03-25T03:22:29;11.0;52.6
78467;SHT31;67759;51.972;5.650;2024-03-25T03:24:58;11.0;52.4
78467;SHT31;67759;51.972;5.650;2024-03-25T03:27:26;11.1;52.3
78467;SHT31;67759;51.972;5.650;2024-03-25T03:29:55;11.2;52.1
78467;SHT31;67759;51.972;5.650;2024-03-25T03:32:24;11.2;51.9
78467;SHT31;67759;51.972;5.650;2024-03-25T03:34:53;11.3;51.7
78467;SHT31;67759;51.972;5.650;2024-03-25T03:37:21;11.3;51.4
78467;SHT31;67759;51.972;5.650;2024-03-25T03:39:50;11.3;51.4
78467;SHT31;67759;51.972;5.650;2024-03-25T03:42:19;11.3;51.4
78467;SHT31;67759;51.972;5.650;2024-03-25T03:44:47;11.4;50.9
78467;SHT31;67759;51.972;5.650;2024-03-25T03:47:15;11.4;50.8
78467;SHT31;67759;51.972;5.650;2024-03-25T03:49:44;11.4;50.6
78467;SHT31;67759;51.972;5.650;2024-03-25T03:52:12;11.5;49.9
78467;SHT31;67759;51.972;5.650;2024-03-25T03:54:43;11.5;49.8
78467;SHT31;67759;51.972;5.650;2024-03-25T03:57:11;11.5;49.4
78467;SHT31;67759;51.972;5.650;2024-03-25T03:59:39;11.5;49.1
78467;SHT31;67759;51.972;5.650;2024-03-25T04:02:08;11.4;49.0
78467;SHT31;67759;51.972;5.650;2024-03-25T04:04:36;11.4;48.7
78467;SHT31;67759;51.972;5.650;2024-03-25T04:07:05;11.4;48.9
78467;SHT31;67759;51.972;5.650;2024-03-25T04:09:33;11.4;49.0
78467;SHT31;67759;51.972;5.650;2024-03-25T04:12:02;11.4;48.9
78467;SHT31;67759;51.972;5.650;2024-03-25T04:14:32;11.4;48.6
78467;SHT31;67759;51.972;5.650;2024-03-25T04:17:00;11.3;48.6
78467;SHT31;67759;51.972;5.650;2024-03-25T04:19:29;11.3;48.8
78467;SHT31;67759;51.972;5.650;2024-03-25T04:21:58;11.3;49.0
78467;SHT31;67759;51.972;5.650;2024-03-25T04:24:28;11.3;49.2
78467;SHT31;67759;51.972;5.650;2024-03-25T04:26:57;11.2;49.5
78467;SHT31;67759;51.972;5.650;2024-03-25T04:29:26;11.2;49.8
78467;SHT31;67759;51.972;5.650;2024-03-25T04:31:57;11.3;50.0
78467;SHT31;67759;51.972;5.650;2024-03-25T04:34:25;11.3;49.7
78467;SHT31;67759;51.972;5.650;2024-03-25T04:36:54;11.3;49.6
78467;SHT31;67759;51.972;5.650;2024-03-25T04:39:22;11.3;49.4
78467;SHT31;67759;51.972;5.650;2024-03-25T04:41:52;11.3;49.2
78467;SHT31;67759;51.972;5.650;2024-03-25T04:44:20;11.3;49.5
78467;SHT31;67759;51.972;5.650;2024-03-25T04:46:49;11.3;50.1
78467;SHT31;67759;51.972;5.650;2024-03-25T04:49:17;11.3;50.3
78467;SHT31;67759;51.972;5.650;2024-03-25T04:51:46;11.3;50.6
78467;SHT31;67759;51.972;5.650;2024-03-25T04:54:17;11.3;51.3
78467;SHT31;67759;51.972;5.650;2024-03-25T04:56:45;11.3;51.3
78467;SHT31;67759;51.972;5.650;2024-03-25T04:59:14;11.2;51.5
78467;SHT31;67759;51.972;5.650;2024-03-25T05:01:43;11.2;51.4
78467;SHT31;67759;51.972;5.650;2024-03-25T05:04:11;11.2;51.0
78467;SHT31;67759;51.972;5.650;2024-03-25T05:06:39;11.2;51.3
78467;SHT31;67759;51.972;5.650;2024-03-25T05:09:10;11.2;51.7
78467;SHT31;67759;51.972;5.650;2024-03-25T05:11:39;11.3;51.7
78467;SHT31;67759;51.972;5.650;2024-03-25T05:14:09;11.3;51.5
78467;SHT31;67759;51.972;5.650;2024-03-25T05:16:38;11.3;51.4
78467;SHT31;67759;51.972;5.650;2024-03-25T05:19:06;11.3;51.5
78467;SHT31;67759;51.972;5.650;2024-03-25T05:21:35;11.4;51.5
78467;SHT31;67759;51.972;5.650;2024-03-25T05:24:05;11.5;51.6
78467;SHT31;67759;51.972;5.650;2024-03-25T05:26:33;11.6;50.9
78467;SHT31;67759;51.972;5.650;2024-03-25T05:29:03;11.7;50.5
78467;SHT31;67759;51.972;5.650;2024-03-25T05:31:31;11.7;50.4
78467;SHT31;67759;51.972;5.650;2024-03-25T05:34:02;11.7;50.0
78467;SHT31;67759;51.972;5.650;2024-03-25T05:36:35;11.7;49.6
78467;SHT31;67759;51.972;5.650;2024-03-25T05:39:03;11.7;49.5
78467;SHT31;67759;51.972;5.650;2024-03-25T05:41:32;11.7;49.8
78467;SHT31;67759;51.972;5.650;2024-03-25T05:44:01;11.7;50.1
78467;SHT31;67759;51.972;5.650;2024-03-25T05:46:30;11.7;50.5
78467;SHT31;67759;51.972;5.650;2024-03-25T05:49:01;11.6;50.6
78467;SHT31;67759;51.972;5.650;2024-03-25T05:51:30;11.6;50.5
78467;SHT31;67759;51.972;5.650;2024-03-25T05:54:00;11.6;50.5
78467;SHT31;67759;51.972;5.650;2024-03-25T05:56:28;11.6;50.7
78467;SHT31;67759;51.972;5.650;2024-03-25T05:59:00;11.6;50.9
78467;SHT31;67759;51.972;5.650;2024-03-25T06:01:29;11.6;50.7
78467;SHT31;67759;51.972;5.650;2024-03-25T06:03:57;11.6;50.8
78467;SHT31;67759;51.972;5.650;2024-03-25T06:06:26;11.6;50.4
78467;SHT31;67759;51.972;5.650;2024-03-25T06:08:55;11.6;50.5
78467;SHT31;67759;51.972;5.650;2024-03-25T06:11:23;11.6;50.8
78467;SHT31;67759;51.972;5.650;2024-03-25T06:13:52;11.6;51.0
78467;SHT31;67759;51.972;5.650;2024-03-25T06:16:20;11.6;50.9
78467;SHT31;67759;51.972;5.650;2024-03-25T06:18:49;11.6;51.1
78467;SHT31;67759;51.972;5.650;2024-03-25T06:21:18;11.5;51.3
78467;SHT31;67759;51.972;5.650;2024-03-25T06:23:46;11.5;51.7
78467;SHT31;67759;51.972;5.650;2024-03-25T06:26:15;11.4;51.9
78467;SHT31;67759;51.972;5.650;2024-03-25T06:28:44;11.4;52.0
78467;SHT31;67759;51.972;5.650;2024-03-25T06:31:14;11.4;52.2
78467;SHT31;67759;51.972;5.650;2024-03-25T06:35:01;11.4;52.5
78467;SHT31;67759;51.972;5.650;2024-03-25T06:37:32;11.4;53.0
78467;SHT31;67759;51.972;5.650;2024-03-25T06:40:01;11.4;53.3
78467;SHT31;67759;51.972;5.650;2024-03-25T06:42:31;11.4;53.4
78467;SHT31;67759;51.972;5.650;2024-03-25T06:44:59;11.4;53.7
78467;SHT31;67759;51.972;5.650;2024-03-25T06:47:29;11.4;54.0
78467;SHT31;67759;51.972;5.650;2024-03-25T06:49:57;11.4;54.4
78467;SHT31;67759;51.972;5.650;2024-03-25T06:52:26;11.4;54.5
78467;SHT31;67759;51.972;5.650;2024-03-25T06:54:54;11.4;55.1
78467;SHT31;67759;51.972;5.650;2024-03-25T06:57:24;11.5;54.9
78467;SHT31;67759;51.972;5.650;2024-03-25T06:59:53;11.6;54.8
78467;SHT31;67759;51.972;5.650;2024-03-25T07:02:25;11.6;54.7
78467;SHT31;67759;51.972;5.650;2024-03-25T07:04:54;11.7;54.5
78467;SHT31;67759;51.972;5.650;2024-03-25T07:07:22;11.7;54.4
78467;SHT31;67759;51.972;5.650;2024-03-25T07:09:51;11.8;54.8
78467;SHT31;67759;51.972;5.650;2024-03-25T07:12:20;11.9;54.5
78467;SHT31;67759;51.972;5.650;2024-03-25T07:14:48;12.0;54.4
78467;SHT31;67759;51.972;5.650;2024-03-25T07:17:17;12.1;54.5
78467;SHT31;67759;51.972;5.650;2024-03-25T07:19:48;12.2;54.2
78467;SHT31;67759;51.972;5.650;2024-03-25T07:22:16;12.3;53.9
78467;SHT31;67759;51.972;5.650;2024-03-25T07:24:45;12.4;53.5
78467;SHT31;67759;51.972;5.650;2024-03-25T07:27:15;12.5;53.7
78467;SHT31;67759;51.972;5.650;2024-03-25T07:29:44;12.6;52.9
78467;SHT31;67759;51.972;5.650;2024-03-25T07:32:12;12.7;53.0
78467;SHT31;67759;51.972;5.650;2024-03-25T07:34:41;12.8;52.5
78467;SHT31;67759;51.972;5.650;2024-03-25T07:37:12;12.9;52.6
78467;SHT31;67759;51.972;5.650;2024-03-25T07:39:41;13.0;52.8
78467;SHT31;67759;51.972;5.650;2024-03-25T07:42:10;13.1;52.6
78467;SHT31;67759;51.972;5.650;2024-03-25T07:44:39;13.1;52.5
78467;SHT31;67759;51.972;5.650;2024-03-25T07:47:07;13.1;52.5
78467;SHT31;67759;51.972;5.650;2024-03-25T07:49:40;13.2;53.0
78467;SHT31;67759;51.972;5.650;2024-03-25T07:52:08;13.3;52.8
78467;SHT31;67759;51.972;5.650;2024-03-25T07:54:37;13.4;52.5
78467;SHT31;67759;51.972;5.650;2024-03-25T07:57:08;13.5;52.9
78467;SHT31;67759;51.972;5.650;2024-03-25T07:59:37;13.6;52.0
78467;SHT31;67759;51.972;5.650;2024-03-25T08:02:06;13.6;51.8
78467;SHT31;67759;51.972;5.650;2024-03-25T08:04:35;13.7;51.7
78467;SHT31;67759;51.972;5.650;2024-03-25T08:07:03;13.7;51.4
78467;SHT31;67759;51.972;5.650;2024-03-25T08:09:32;13.7;51.8
78467;SHT31;67759;51.972;5.650;2024-03-25T08:12:04;13.8;51.7
78467;SHT31;67759;51.972;5.650;2024-03-25T08:14:33;13.8;51.7
78467;SHT31;67759;51.972;5.650;2024-03-25T08:17:01;13.8;51.4
78467;SHT31;67759;51.972;5.650;2024-03-25T08:19:32;13.8;51.2
78467;SHT31;67759;51.972;5.650;2024-03-25T08:22:00;13.8;51.5
78467;SHT31;67759;51.972;5.650;2024-03-25T08:24:32;13.9;52.0
78467;SHT31;67759;51.972;5.650;2024-03-25T08:27:00;14.0;51.2
78467;SHT31;67759;51.972;5.650;2024-03-25T08:29:29;14.0;50.5
78467;SHT31;67759;51.972;5.650;2024-03-25T08:31:58;14.1;50.8
78467;SHT31;67759;51.972;5.650;2024-03-25T08:34:27;14.1;50.6
78467;SHT31;67759;51.972;5.650;2024-03-25T08:36:55;14.2;50.8
78467;SHT31;67759;51.972;5.650;2024-03-25T08:39:24;14.4;50.5
78467;SHT31;67759;51.972;5.650;2024-03-25T08:41:52;14.5;50.0
78467;SHT31;67759;51.972;5.650;2024-03-25T08:44:21;14.6;49.7
78467;SHT31;67759;51.972;5.650;2024-03-25T08:46:50;14.7;49.4
78467;SHT31;67759;51.972;5.650;2024-03-25T08:49:19;14.7;49.0
78467;SHT31;67759;51.972;5.650;2024-03-25T08:51:48;14.7;48.7
78467;SHT31;67759;51.972;5.650;2024-03-25T08:54:17;14.8;48.6
78467;SHT31;67759;51.972;5.650;2024-03-25T08:56:46;14.8;47.2
78467;SHT31;67759;51.972;5.650;2024-03-25T08:59:14;14.8;47.7
78467;SHT31;67759;51.972;5.650;2024-03-25T09:01:43;14.8;47.3
78467;SHT31;67759;51.972;5.650;2024-03-25T09:04:11;14.9;47.2
78467;SHT31;67759;51.972;5.650;2024-03-25T09:06:42;14.9;47.7
78467;SHT31;67759;51.972;5.650;2024-03-25T09:09:11;15.0;47.1
78467;SHT31;67759;51.972;5.650;2024-03-25T09:13:28;15.1;46.4
78467;SHT31;67759;51.972;5.650;2024-03-25T09:15:57;15.2;45.8
78467;SHT31;67759;51.972;5.650;2024-03-25T09:18:25;15.3;44.1
78467;SHT31;67759;51.972;5.650;2024-03-25T09:20:56;15.3;45.3
78467;SHT31;67759;51.972;5.650;2024-03-25T09:23:25;15.4;45.2
78467;SHT31;67759;51.972;5.650;2024-03-25T09:25:54;15.5;45.2
78467;SHT31;67759;51.972;5.650;2024-03-25T09:28:25;15.6;44.4
78467;SHT31;67759;51.972;5.650;2024-03-25T09:30:55;15.7;44.0
78467;SHT31;67759;51.972;5.650;2024-03-25T09:33:24;15.8;43.7
78467;SHT31;67759;51.972;5.650;2024-03-25T09:35:52;15.9;43.0
78467;SHT31;67759;51.972;5.650;2024-03-25T09:38:21;16.0;44.8
78467;SHT31;67759;51.972;5.650;2024-03-25T09:40:53;16.1;43.3
78467;SHT31;67759;51.972;5.650;2024-03-25T09:43:25;16.2;43.3
78467;SHT31;67759;51.972;5.650;2024-03-25T09:45:55;16.3;43.2
78467;SHT31;67759;51.972;5.650;2024-03-25T09:48:27;16.4;43.7
78467;SHT31;67759;51.972;5.650;2024-03-25T09:50:56;16.5;43.5
78467;SHT31;67759;51.972;5.650;2024-03-25T09:53:25;16.6;41.4
78467;SHT31;67759;51.972;5.650;2024-03-25T09:55:56;16.7;41.9
78467;SHT31;67759;51.972;5.650;2024-03-25T09:58:27;16.7;41.5
78467;SHT31;67759;51.972;5.650;2024-03-25T10:00:58;16.7;42.1
78467;SHT31;67759;51.972;5.650;2024-03-25T10:03:27;16.8;42.3
78467;SHT31;67759;51.972;5.650;2024-03-25T10:05:55;17.0;42.3
78467;SHT31;67759;51.972;5.650;2024-03-25T10:08:24;17.1;41.8
78467;SHT31;67759;51.972;5.650;2024-03-25T10:10:57;17.3;41.8
78467;SHT31;67759;51.972;5.650;2024-03-25T10:13:26;17.4;40.9
78467;SHT31;67759;51.972;5.650;2024-03-25T10:15:56;17.5;40.3
78467;SHT31;67759;51.972;5.650;2024-03-25T10:18:25;17.6;40.4
78467;SHT31;67759;51.972;5.650;2024-03-25T10:20:54;17.8;39.7
78467;SHT31;67759;51.972;5.650;2024-03-25T10:23:23;18.0;38.6
78467;SHT31;67759;51.972;5.650;2024-03-25T10:25:56;18.1;37.8
78467;SHT31;67759;51.972;5.650;2024-03-25T10:28:24;18.1;38.6
78467;SHT31;67759;51.972;5.650;2024-03-25T10:30:53;18.2;37.8
78467;SHT31;67759;51.972;5.650;2024-03-25T10:33:21;18.2;37.0
78467;SHT31;67759;51.972;5.650;2024-03-25T10:35:52;18.3;37.5
78467;SHT31;67759;51.972;5.650;2024-03-25T10:38:23;18.3;38.3
78467;SHT31;67759;51.972;5.650;2024-03-25T10:40:56;18.4;37.3
78467;SHT31;67759;51.972;5.650;2024-03-25T10:43:29;18.5;38.0
78467;SHT31;67759;51.972;5.650;2024-03-25T10:46:00;18.7;37.6
78467;SHT31;67759;51.972;5.650;2024-03-25T10:48:37;18.9;37.1
78467;SHT31;67759;51.972;5.650;2024-03-25T10:51:07;19.1;36.0
78467;SHT31;67759;51.972;5.650;2024-03-25T10:53:41;19.2;35.0
78467;SHT31;67759;51.972;5.650;2024-03-25T10:56:15;19.2;34.5
78467;SHT31;67759;51.972;5.650;2024-03-25T10:58:47;19.3;35.3
78467;SHT31;67759;51.972;5.650;2024-03-25T11:01:17;19.3;34.8
78467;SHT31;67759;51.972;5.650;2024-03-25T11:03:47;19.3;34.7
78467;SHT31;67759;51.972;5.650;2024-03-25T11:06:16;19.3;35.4
78467;SHT31;67759;51.972;5.650;2024-03-25T11:08:58;19.3;35.6
78467;SHT31;67759;51.972;5.650;2024-03-25T11:11:32;19.3;36.0
78467;SHT31;67759;51.972;5.650;2024-03-25T11:14:04;19.4;34.9
78467;SHT31;67759;51.972;5.650;2024-03-25T11:16:38;19.4;35.2
78467;SHT31;67759;51.972;5.650;2024-03-25T11:19:10;19.5;34.5
78467;SHT31;67759;51.972;5.650;2024-03-25T11:21:39;19.4;33.2
78467;SHT31;67759;51.972;5.650;2024-03-25T11:24:08;19.4;34.1
78467;SHT31;67759;51.972;5.650;2024-03-25T11:26:41;19.3;34.5
78467;SHT31;67759;51.972;5.650;2024-03-25T11:29:09;19.3;33.4
78467;SHT31;67759;51.972;5.650;2024-03-25T11:31:39;19.4;34.0
78467;SHT31;67759;51.972;5.650;2024-03-25T11:34:11;19.4;33.2
78467;SHT31;67759;51.972;5.650;2024-03-25T11:36:40;19.5;34.0
78467;SHT31;67759;51.972;5.650;2024-03-25T11:39:10;19.5;33.3
78467;SHT31;67759;51.972;5.650;2024-03-25T11:41:42;19.5;33.7
78467;SHT31;67759;51.972;5.650;2024-03-25T11:44:12;19.5;34.9
78467;SHT31;67759;51.972;5.650;2024-03-25T11:46:41;19.5;34.6
78467;SHT31;67759;51.972;5.650;2024-03-25T11:49:12;19.5;36.9
78467;SHT31;67759;51.972;5.650;2024-03-25T11:51:43;19.6;35.0
78467;SHT31;67759;51.972;5.650;2024-03-25T11:54:15;19.8;33.1
78467;SHT31;67759;51.972;5.650;2024-03-25T11:56:45;19.9;34.4
78467;SHT31;67759;51.972;5.650;2024-03-25T11:59:21;20.0;34.5
78467;SHT31;67759;51.972;5.650;2024-03-25T12:01:49;20.2;33.8
78467;SHT31;67759;51.972;5.650;2024-03-25T12:04:18;20.3;31.7
78467;SHT31;67759;51.972;5.650;2024-03-25T12:06:49;20.3;31.4
78467;SHT31;67759;51.972;5.650;2024-03-25T12:09:23;20.3;32.4
78467;SHT31;67759;51.972;5.650;2024-03-25T12:12:09;20.2;32.2
78467;SHT31;67759;51.972;5.650;2024-03-25T12:14:38;20.1;31.3
78467;SHT31;67759;51.972;5.650;2024-03-25T12:17:07;20.0;31.5
78467;SHT31;67759;51.972;5.650;2024-03-25T12:19:35;19.9;32.6
78467;SHT31;67759;51.972;5.650;2024-03-25T12:22:04;19.9;34.2
78467;SHT31;67759;51.972;5.650;2024-03-25T12:24:34;19.8;30.3
78467;SHT31;67759;51.972;5.650;2024-03-25T12:27:03;19.7;29.1
78467;SHT31;67759;51.972;5.650;2024-03-25T12:29:37;19.7;28.7
78467;SHT31;67759;51.972;5.650;2024-03-25T12:32:09;19.7;30.4
78467;SHT31;67759;51.972;5.650;2024-03-25T12:34:38;19.7;32.1
78467;SHT31;67759;51.972;5.650;2024-03-25T12:37:08;19.8;30.5
78467;SHT31;67759;51.972;5.650;2024-03-25T12:39:48;20.0;29.2
78467;SHT31;67759;51.972;5.650;2024-03-25T12:42:17;20.0;32.8
78467;SHT31;67759;51.972;5.650;2024-03-25T12:44:48;20.1;29.4
78467;SHT31;67759;51.972;5.650;2024-03-25T12:47:19;20.3;32.2
78467;SHT31;67759;51.972;5.650;2024-03-25T12:49:47;20.5;29.1
78467;SHT31;67759;51.972;5.650;2024-03-25T12:52:16;20.7;32.2
78467;SHT31;67759;51.972;5.650;2024-03-25T12:54:44;20.8;30.1
78467;SHT31;67759;51.972;5.650;2024-03-25T12:57:13;20.9;28.8
78467;SHT31;67759;51.972;5.650;2024-03-25T12:59:43;21.1;28.8
78467;SHT31;67759;51.972;5.650;2024-03-25T13:02:15;21.5;27.9
78467;SHT31;67759;51.972;5.650;2024-03-25T13:04:45;21.8;28.0
78467;SHT31;67759;51.972;5.650;2024-03-25T13:07:13;22.2;27.6
78467;SHT31;67759;51.972;5.650;2024-03-25T13:09:42;22.4;30.9
78467;SHT31;67759;51.972;5.650;2024-03-25T13:12:12;22.4;27.8
78467;SHT31;67759;51.972;5.650;2024-03-25T13:14:41;22.5;27.8
78467;SHT31;67759;51.972;5.650;2024-03-25T13:17:10;22.5;27.5
78467;SHT31;67759;51.972;5.650;2024-03-25T13:19:41;22.5;28.8
78467;SHT31;67759;51.972;5.650;2024-03-25T13:22:09;22.6;26.0
78467;SHT31;67759;51.972;5.650;2024-03-25T13:24:38;22.6;30.4
78467;SHT31;67759;51.972;5.650;2024-03-25T13:27:07;22.7;26.0
78467;SHT31;67759;51.972;5.650;2024-03-25T13:29:35;22.7;29.2
78467;SHT31;67759;51.972;5.650;2024-03-25T13:32:04;22.7;25.7
78467;SHT31;67759;51.972;5.650;2024-03-25T13:34:37;22.7;25.8
78467;SHT31;67759;51.972;5.650;2024-03-25T13:37:07;22.5;28.2
78467;SHT31;67759;51.972;5.650;2024-03-25T13:39:36;22.3;28.4
78467;SHT31;67759;51.972;5.650;2024-03-25T13:42:05;22.2;31.7
78467;SHT31;67759;51.972;5.650;2024-03-25T13:44:33;22.3;28.5
78467;SHT31;67759;51.972;5.650;2024-03-25T13:47:04;22.5;27.8
78467;SHT31;67759;51.972;5.650;2024-03-25T13:49:33;22.6;31.1
78467;SHT31;67759;51.972;5.650;2024-03-25T13:52:04;22.6;27.1
78467;SHT31;67759;51.972;5.650;2024-03-25T13:54:33;22.7;27.2
78467;SHT31;67759;51.972;5.650;2024-03-25T13:57:03;22.7;26.5
78467;SHT31;67759;51.972;5.650;2024-03-25T13:59:33;22.6;24.9
78467;SHT31;67759;51.972;5.650;2024-03-25T14:02:02;22.7;28.4
78467;SHT31;67759;51.972;5.650;2024-03-25T14:04:30;22.7;25.7
78467;SHT31;67759;51.972;5.650;2024-03-25T14:06:58;22.7;25.5
78467;SHT31;67759;51.972;5.650;2024-03-25T14:09:27;22.7;23.9
78467;SHT31;67759;51.972;5.650;2024-03-25T14:11:56;22.7;24.7
78467;SHT31;67759;51.972;5.650;2024-03-25T14:14:25;22.7;23.1
78467;SHT31;67759;51.972;5.650;2024-03-25T14:16:53;22.7;27.0
78467;SHT31;67759;51.972;5.650;2024-03-25T14:19:22;22.6;29.3
78467;SHT31;67759;51.972;5.650;2024-03-25T14:21:51;22.6;26.9
78467;SHT31;67759;51.972;5.650;2024-03-25T14:24:27;22.7;29.0
78467;SHT31;67759;51.972;5.650;2024-03-25T14:26:59;22.7;25.5
78467;SHT31;67759;51.972;5.650;2024-03-25T14:29:27;22.7;25.4
78467;SHT31;67759;51.972;5.650;2024-03-25T14:31:56;22.8;24.9
78467;SHT31;67759;51.972;5.650;2024-03-25T14:34:26;22.8;24.5
78467;SHT31;67759;51.972;5.650;2024-03-25T14:36:54;22.7;22.9
78467;SHT31;67759;51.972;5.650;2024-03-25T14:39:23;22.4;23.5
78467;SHT31;67759;51.972;5.650;2024-03-25T14:41:59;22.2;24.5
78467;SHT31;67759;51.972;5.650;2024-03-25T14:44:29;22.0;27.6
78467;SHT31;67759;51.972;5.650;2024-03-25T14:46:58;21.9;26.2
78467;SHT31;67759;51.972;5.650;2024-03-25T14:49:26;22.0;25.8
78467;SHT31;67759;51.972;5.650;2024-03-25T14:51:55;22.1;25.5
78467;SHT31;67759;51.972;5.650;2024-03-25T14:54:34;22.1;27.9
78467;SHT31;67759;51.972;5.650;2024-03-25T14:57:03;22.1;25.7
78467;SHT31;67759;51.972;5.650;2024-03-25T14:59:35;22.2;24.7
78467;SHT31;67759;51.972;5.650;2024-03-25T15:02:03;22.2;24.9
78467;SHT31;67759;51.972;5.650;2024-03-25T15:04:34;22.2;26.4
78467;SHT31;67759;51.972;5.650;2024-03-25T15:07:03;22.3;29.7
78467;SHT31;67759;51.972;5.650;2024-03-25T15:09:33;22.3;25.9
78467;SHT31;67759;51.972;5.650;2024-03-25T15:12:01;22.4;25.9
78467;SHT31;67759;51.972;5.650;2024-03-25T15:14:30;22.7;24.5
78467;SHT31;67759;51.972;5.650;2024-03-25T15:17:00;22.8;25.3
78467;SHT31;67759;51.972;5.650;2024-03-25T15:19:29;23.0;25.6
78467;SHT31;67759;51.972;5.650;2024-03-25T15:21:57;23.1;25.3
78467;SHT31;67759;51.972;5.650;2024-03-25T15:24:25;23.4;25.6
78467;SHT31;67759;51.972;5.650;2024-03-25T15:26:54;23.7;23.4
78467;SHT31;67759;51.972;5.650;2024-03-25T15:29:22;23.8;22.9
78467;SHT31;67759;51.972;5.650;2024-03-25T15:31:52;23.9;24.9
78467;SHT31;67759;51.972;5.650;2024-03-25T15:34:21;24.0;23.6
78467;SHT31;67759;51.972;5.650;2024-03-25T15:36:51;24.1;22.9
78467;SHT31;67759;51.972;5.650;2024-03-25T15:39:20;24.2;24.3
78467;SHT31;67759;51.972;5.650;2024-03-25T15:41:49;24.3;22.4
78467;SHT31;67759;51.972;5.650;2024-03-25T15:44:18;24.4;22.2
78467;SHT31;67759;51.972;5.650;2024-03-25T15:46:48;24.4;22.6
78467;SHT31;67759;51.972;5.650;2024-03-25T15:49:19;24.4;21.7
78467;SHT31;67759;51.972;5.650;2024-03-25T15:51:48;24.5;21.7
78467;SHT31;67759;51.972;5.650;2024-03-25T15:54:18;24.5;23.2
78467;SHT31;67759;51.972;5.650;2024-03-25T15:56:47;24.5;22.7
78467;SHT31;67759;51.972;5.650;2024-03-25T15:59:15;24.5;22.8
78467;SHT31;67759;51.972;5.650;2024-03-25T16:01:44;24.4;22.2
78467;SHT31;67759;51.972;5.650;2024-03-25T16:04:12;24.2;22.5
78467;SHT31;67759;51.972;5.650;2024-03-25T16:06:41;24.2;22.4
78467;SHT31;67759;51.972;5.650;2024-03-25T16:09:09;24.1;23.0
78467;SHT31;67759;51.972;5.650;2024-03-25T16:11:40;24.0;22.8
78467;SHT31;67759;51.972;5.650;2024-03-25T16:14:08;23.9;22.8
78467;SHT31;67759;51.972;5.650;2024-03-25T16:16:41;23.6;24.6
78467;SHT31;67759;51.972;5.650;2024-03-25T16:19:10;23.2;25.4